sensor_id;sensor_type;location;lat;lon;timestamp;pressure;altitude;pressure_sealevel;temperature;humidity
41306;BME280;27051;50.376;19.152;2023-11-21T00:01:57;97284.20;;;9.67;75.81
41306;BME280;27051;50.376;19.152;2023-11-21T00:04:44;97281.61;;;9.72;75.71
41306;BME280;27051;50.376;19.152;2023-11-21T00:07:31;97283.14;;;9.68;75.38
41306;BME280;27051;50.376;19.152;2023-11-21T00:09:58;97284.77;;;9.65;75.48
41306;BME280;27051;50.376;19.152;2023-11-21T00:15:23;97287.02;;;9.66;75.58
41306;BME280;27051;50.376;19.152;2023-11-21T00:20:54;97300.18;;;9.65;75.52
41306;BME280;27051;50.376;19.152;2023-11-21T00:26:24;97299.02;;;9.54;75.21
41306;BME280;27051;50.376;19.152;2023-11-21T00:29:00;97299.69;;;9.50;75.30
41306;BME280;27051;50.376;19.152;2023-11-21T00:31:27;97306.09;;;9.51;75.40
41306;BME280;27051;50.376;19.152;2023-11-21T00:34:15;97304.23;;;9.47;75.40
41306;BME280;27051;50.376;19.152;2023-11-21T00:37:02;97302.70;;;9.47;75.47
41306;BME280;27051;50.376;19.152;2023-11-21T00:42:35;97305.65;;;9.52;75.22
41306;BME280;27051;50.376;19.152;2023-11-21T00:45:06;97303.66;;;9.49;75.24
41306;BME280;27051;50.376;19.152;2023-11-21T00:47:54;97308.91;;;9.51;75.32
41306;BME280;27051;50.376;19.152;2023-11-21T00:50:34;97310.48;;;9.49;75.22
41306;BME280;27051;50.376;19.152;2023-11-21T00:53:04;97314.11;;;9.50;75.41
41306;BME280;27051;50.376;19.152;2023-11-21T00:55:34;97312.80;;;9.49;75.03
41306;BME280;27051;50.376;19.152;2023-11-21T00:58:11;97310.68;;;9.47;75.22
41306;BME280;27051;50.376;19.152;2023-11-21T01:01:20;97308.84;;;9.47;75.31
41306;BME280;27051;50.376;19.152;2023-11-21T01:03:46;97309.85;;;9.45;75.01
41306;BME280;27051;50.376;19.152;2023-11-21T01:09:02;97308.30;;;9.40;75.25
41306;BME280;27051;50.376;19.152;2023-11-21T01:11:53;97310.23;;;9.40;75.26
41306;BME280;27051;50.376;19.152;2023-11-21T01:20:25;97303.18;;;9.41;75.35
41306;BME280;27051;50.376;19.152;2023-11-21T01:22:51;97298.33;;;9.43;75.49
41306;BME280;27051;50.376;19.152;2023-11-21T01:25:19;97299.58;;;9.41;75.39
41306;BME280;27051;50.376;19.152;2023-11-21T01:27:46;97298.89;;;9.37;75.40
41306;BME280;27051;50.376;19.152;2023-11-21T01:30:17;97303.98;;;9.35;75.44
41306;BME280;27051;50.376;19.152;2023-11-21T01:32:51;97307.14;;;9.32;75.59
41306;BME280;27051;50.376;19.152;2023-11-21T01:35:39;97305.83;;;9.35;75.62
41306;BME280;27051;50.376;19.152;2023-11-21T01:38:16;97307.81;;;9.32;75.42
41306;BME280;27051;50.376;19.152;2023-11-21T01:41:24;97310.72;;;9.28;75.65
41306;BME280;27051;50.376;19.152;2023-11-21T01:44:14;97312.53;;;9.27;75.58
41306;BME280;27051;50.376;19.152;2023-11-21T01:46:44;97313.05;;;9.26;75.61
41306;BME280;27051;50.376;19.152;2023-11-21T01:49:18;97312.47;;;9.24;75.65
41306;BME280;27051;50.376;19.152;2023-11-21T01:51:47;97311.32;;;9.24;75.79
41306;BME280;27051;50.376;19.152;2023-11-21T01:54:59;97308.31;;;9.23;75.58
41306;BME280;27051;50.376;19.152;2023-11-21T01:57:38;97309.98;;;9.19;75.66
41306;BME280;27051;50.376;19.152;2023-11-21T02:00:24;97311.98;;;9.20;75.74
41306;BME280;27051;50.376;19.152;2023-11-21T02:05:59;97310.34;;;9.11;75.54
41306;BME280;27051;50.376;19.152;2023-11-21T02:08:47;97312.27;;;9.05;75.58
41306;BME280;27051;50.376;19.152;2023-11-21T02:11:14;97314.64;;;9.02;75.51
41306;BME280;27051;50.376;19.152;2023-11-21T02:22:07;97313.86;;;9.01;75.87
41306;BME280;27051;50.376;19.152;2023-11-21T02:24:45;97312.75;;;8.99;75.83
41306;BME280;27051;50.376;19.152;2023-11-21T02:29:50;97315.11;;;8.99;75.97
41306;BME280;27051;50.376;19.152;2023-11-21T02:32:18;97319.16;;;9.02;76.07
41306;BME280;27051;50.376;19.152;2023-11-21T02:34:48;97320.84;;;9.05;76.04
41306;BME280;27051;50.376;19.152;2023-11-21T02:37:15;97323.81;;;9.11;76.08
41306;BME280;27051;50.376;19.152;2023-11-21T02:39:54;97329.39;;;9.14;75.85
41306;BME280;27051;50.376;19.152;2023-11-21T02:42:41;97328.28;;;9.16;76.06
41306;BME280;27051;50.376;19.152;2023-11-21T02:45:09;97328.88;;;9.15;75.79
41306;BME280;27051;50.376;19.152;2023-11-21T02:47:59;97327.79;;;9.13;75.87
41306;BME280;27051;50.376;19.152;2023-11-21T02:50:26;97327.96;;;9.15;76.06
41306;BME280;27051;50.376;19.152;2023-11-21T02:53:25;97333.61;;;9.13;75.75
41306;BME280;27051;50.376;19.152;2023-11-21T02:56:00;97331.75;;;9.13;75.77
41306;BME280;27051;50.376;19.152;2023-11-21T02:58:27;97333.92;;;9.11;75.76
41306;BME280;27051;50.376;19.152;2023-11-21T03:00:57;97330.80;;;9.12;76.01
41306;BME280;27051;50.376;19.152;2023-11-21T03:03:45;97333.66;;;9.09;75.76
41306;BME280;27051;50.376;19.152;2023-11-21T03:08:58;97331.70;;;9.04;75.90
41306;BME280;27051;50.376;19.152;2023-11-21T03:11:29;97331.43;;;9.09;76.04
41306;BME280;27051;50.376;19.152;2023-11-21T03:14:17;97335.02;;;9.08;75.75
41306;BME280;27051;50.376;19.152;2023-11-21T03:17:13;97333.40;;;9.08;75.77
41306;BME280;27051;50.376;19.152;2023-11-21T03:22:33;97332.72;;;9.15;75.80
41306;BME280;27051;50.376;19.152;2023-11-21T03:25:00;97333.91;;;9.14;75.73
41306;BME280;27051;50.376;19.152;2023-11-21T03:27:30;97330.36;;;9.13;75.66
41306;BME280;27051;50.376;19.152;2023-11-21T03:30:11;97335.11;;;9.09;75.48
41306;BME280;27051;50.376;19.152;2023-11-21T03:32:41;97340.77;;;9.12;75.77
41306;BME280;27051;50.376;19.152;2023-11-21T03:35:11;97338.44;;;9.07;75.62
41306;BME280;27051;50.376;19.152;2023-11-21T03:37:38;97342.73;;;9.07;75.67
41306;BME280;27051;50.376;19.152;2023-11-21T03:40:33;97342.91;;;9.09;75.73
41306;BME280;27051;50.376;19.152;2023-11-21T03:43:26;97345.20;;;9.08;75.50
41306;BME280;27051;50.376;19.152;2023-11-21T03:46:24;97347.11;;;9.05;75.41
41306;BME280;27051;50.376;19.152;2023-11-21T03:51:42;97350.27;;;8.96;75.79
41306;BME280;27051;50.376;19.152;2023-11-21T03:54:40;97347.39;;;9.01;75.75
41306;BME280;27051;50.376;19.152;2023-11-21T03:57:12;97349.52;;;9.07;75.82
41306;BME280;27051;50.376;19.152;2023-11-21T03:59:44;97348.70;;;9.08;75.55
41306;BME280;27051;50.376;19.152;2023-11-21T04:05:11;97353.88;;;9.09;75.52
41306;BME280;27051;50.376;19.152;2023-11-21T04:07:43;97355.52;;;9.08;75.47
41306;BME280;27051;50.376;19.152;2023-11-21T04:10:12;97359.73;;;9.08;75.51
41306;BME280;27051;50.376;19.152;2023-11-21T04:12:40;97355.69;;;9.08;75.42
41306;BME280;27051;50.376;19.152;2023-11-21T04:15:15;97359.16;;;9.09;75.63
41306;BME280;27051;50.376;19.152;2023-11-21T04:18:02;97360.95;;;9.13;75.68
41306;BME280;27051;50.376;19.152;2023-11-21T04:23:17;97359.54;;;9.26;75.64
41306;BME280;27051;50.376;19.152;2023-11-21T04:25:48;97359.89;;;9.28;75.46
41306;BME280;27051;50.376;19.152;2023-11-21T04:28:39;97360.81;;;9.28;75.41
41306;BME280;27051;50.376;19.152;2023-11-21T04:31:08;97362.70;;;9.26;75.32
41306;BME280;27051;50.376;19.152;2023-11-21T04:36:47;97365.70;;;9.23;75.23
41306;BME280;27051;50.376;19.152;2023-11-21T04:39:24;97364.64;;;9.24;75.47
41306;BME280;27051;50.376;19.152;2023-11-21T04:41:51;97366.31;;;9.24;75.34
41306;BME280;27051;50.376;19.152;2023-11-21T04:44:48;97364.70;;;9.17;75.08
41306;BME280;27051;50.376;19.152;2023-11-21T04:50:32;97370.39;;;8.99;75.21
41306;BME280;27051;50.376;19.152;2023-11-21T04:53:28;97375.50;;;8.92;75.45
41306;BME280;27051;50.376;19.152;2023-11-21T04:55:56;97382.96;;;8.90;75.61
41306;BME280;27051;50.376;19.152;2023-11-21T04:58:42;97385.92;;;8.86;75.51
41306;BME280;27051;50.376;19.152;2023-11-21T05:01:14;97385.96;;;8.81;75.66
41306;BME280;27051;50.376;19.152;2023-11-21T05:03:41;97385.02;;;8.80;75.71
41306;BME280;27051;50.376;19.152;2023-11-21T05:06:27;97390.36;;;8.77;75.63
41306;BME280;27051;50.376;19.152;2023-11-21T05:09:14;97391.79;;;8.76;75.77
41306;BME280;27051;50.376;19.152;2023-11-21T05:12:01;97394.92;;;8.78;75.72
41306;BME280;27051;50.376;19.152;2023-11-21T05:14:29;97393.61;;;8.78;75.75
41306;BME280;27051;50.376;19.152;2023-11-21T05:16:56;97399.50;;;8.84;75.96
41306;BME280;27051;50.376;19.152;2023-11-21T05:22:21;97399.62;;;8.95;75.82
41306;BME280;27051;50.376;19.152;2023-11-21T05:25:04;97399.81;;;8.97;75.74
41306;BME280;27051;50.376;19.152;2023-11-21T05:27:52;97398.92;;;8.97;75.66
41306;BME280;27051;50.376;19.152;2023-11-21T05:30:40;97404.58;;;9.00;75.64
41306;BME280;27051;50.376;19.152;2023-11-21T05:33:15;97405.80;;;8.97;75.47
41306;BME280;27051;50.376;19.152;2023-11-21T05:36:02;97408.54;;;8.96;75.52
41306;BME280;27051;50.376;19.152;2023-11-21T05:38:51;97410.68;;;8.99;75.69
41306;BME280;27051;50.376;19.152;2023-11-21T05:41:36;97413.91;;;9.06;75.61
41306;BME280;27051;50.376;19.152;2023-11-21T05:44:27;97419.70;;;9.07;75.56
41306;BME280;27051;50.376;19.152;2023-11-21T05:47:15;97422.41;;;9.09;75.44
41306;BME280;27051;50.376;19.152;2023-11-21T05:49:44;97424.48;;;9.11;75.43
41306;BME280;27051;50.376;19.152;2023-11-21T05:52:35;97426.79;;;9.16;75.59
41306;BME280;27051;50.376;19.152;2023-11-21T05:58:22;97430.04;;;9.26;75.44
41306;BME280;27051;50.376;19.152;2023-11-21T06:01:10;97432.13;;;9.27;75.34
41306;BME280;27051;50.376;19.152;2023-11-21T06:03:59;97431.20;;;9.23;75.22
41306;BME280;27051;50.376;19.152;2023-11-21T06:06:37;97432.81;;;9.14;75.19
41306;BME280;27051;50.376;19.152;2023-11-21T06:09:04;97436.48;;;9.11;75.32
41306;BME280;27051;50.376;19.152;2023-11-21T06:11:55;97440.13;;;9.16;75.37
41306;BME280;27051;50.376;19.152;2023-11-21T06:14:36;97442.24;;;9.21;75.44
41306;BME280;27051;50.376;19.152;2023-11-21T06:17:24;97443.42;;;9.28;75.51
41306;BME280;27051;50.376;19.152;2023-11-21T06:19:51;97446.91;;;9.33;75.34
41306;BME280;27051;50.376;19.152;2023-11-21T06:25:15;97455.10;;;9.21;75.33
41306;BME280;27051;50.376;19.152;2023-11-21T06:30:46;97459.51;;;9.25;75.45
41306;BME280;27051;50.376;19.152;2023-11-21T06:33:13;97462.48;;;9.31;75.46
41306;BME280;27051;50.376;19.152;2023-11-21T06:35:43;97465.77;;;9.37;75.43
41306;BME280;27051;50.376;19.152;2023-11-21T06:38:30;97471.22;;;9.34;75.23
41306;BME280;27051;50.376;19.152;2023-11-21T06:44:03;97475.10;;;9.39;75.26
41306;BME280;27051;50.376;19.152;2023-11-21T06:46:53;97474.72;;;9.40;75.35
41306;BME280;27051;50.376;19.152;2023-11-21T06:49:24;97478.98;;;9.51;75.46
41306;BME280;27051;50.376;19.152;2023-11-21T06:52:12;97480.95;;;9.60;75.49
41306;BME280;27051;50.376;19.152;2023-11-21T06:55:00;97484.31;;;9.65;75.24
41306;BME280;27051;50.376;19.152;2023-11-21T06:57:55;97484.61;;;9.68;75.29
41306;BME280;27051;50.376;19.152;2023-11-21T07:00:45;97482.37;;;9.70;75.08
41306;BME280;27051;50.376;19.152;2023-11-21T07:03:12;97487.96;;;9.70;75.16
41306;BME280;27051;50.376;19.152;2023-11-21T07:05:48;97482.55;;;9.75;75.33
41306;BME280;27051;50.376;19.152;2023-11-21T07:08:36;97483.38;;;9.81;75.32
41306;BME280;27051;50.376;19.152;2023-11-21T07:13:51;97482.24;;;9.82;74.93
41306;BME280;27051;50.376;19.152;2023-11-21T07:16:18;97482.73;;;9.76;74.91
41306;BME280;27051;50.376;19.152;2023-11-21T07:18:45;97484.02;;;9.79;75.18
41306;BME280;27051;50.376;19.152;2023-11-21T07:21:13;97488.67;;;9.85;75.13
41306;BME280;27051;50.376;19.152;2023-11-21T07:23:40;97486.92;;;9.85;75.00
41306;BME280;27051;50.376;19.152;2023-11-21T07:26:07;97485.93;;;9.92;75.23
41306;BME280;27051;50.376;19.152;2023-11-21T07:28:51;97488.43;;;9.98;74.94
41306;BME280;27051;50.376;19.152;2023-11-21T07:31:40;97487.41;;;9.87;74.69
41306;BME280;27051;50.376;19.152;2023-11-21T07:34:06;97487.45;;;9.89;74.96
41306;BME280;27051;50.376;19.152;2023-11-21T07:42:02;97496.96;;;10.02;74.79
41306;BME280;27051;50.376;19.152;2023-11-21T07:44:30;97496.91;;;10.10;74.74
41306;BME280;27051;50.376;19.152;2023-11-21T07:47:08;97496.73;;;10.16;74.74
41306;BME280;27051;50.376;19.152;2023-11-21T07:50:17;97498.69;;;10.25;74.70
41306;BME280;27051;50.376;19.152;2023-11-21T07:52:43;97496.63;;;10.22;74.27
41306;BME280;27051;50.376;19.152;2023-11-21T07:55:22;97496.45;;;10.20;74.20
41306;BME280;27051;50.376;19.152;2023-11-21T07:58:13;97499.95;;;10.20;74.31
41306;BME280;27051;50.376;19.152;2023-11-21T08:00:59;97500.49;;;10.23;74.23
41306;BME280;27051;50.376;19.152;2023-11-21T08:03:50;97501.11;;;10.13;73.74
41306;BME280;27051;50.376;19.152;2023-11-21T08:06:27;97505.19;;;10.13;74.08
41306;BME280;27051;50.376;19.152;2023-11-21T08:09:14;97506.13;;;10.17;74.35
41306;BME280;27051;50.376;19.152;2023-11-21T08:11:53;97512.64;;;10.28;74.29
41306;BME280;27051;50.376;19.152;2023-11-21T08:14:43;97512.32;;;10.40;74.34
41306;BME280;27051;50.376;19.152;2023-11-21T08:17:13;97521.94;;;10.45;73.91
41306;BME280;27051;50.376;19.152;2023-11-21T08:20:03;97519.53;;;10.47;74.09
41306;BME280;27051;50.376;19.152;2023-11-21T08:22:30;97516.34;;;10.56;73.90
41306;BME280;27051;50.376;19.152;2023-11-21T08:25:00;97518.56;;;10.56;73.79
41306;BME280;27051;50.376;19.152;2023-11-21T08:28:08;97519.23;;;10.55;73.62
41306;BME280;27051;50.376;19.152;2023-11-21T08:31:15;97520.53;;;10.62;73.79
41306;BME280;27051;50.376;19.152;2023-11-21T08:33:44;97520.16;;;10.63;73.38
41306;BME280;27051;50.376;19.152;2023-11-21T08:36:11;97521.90;;;10.61;73.13
41306;BME280;27051;50.376;19.152;2023-11-21T08:38:59;97524.21;;;10.54;72.80
41306;BME280;27051;50.376;19.152;2023-11-21T08:41:35;97526.17;;;10.45;72.84
41306;BME280;27051;50.376;19.152;2023-11-21T08:44:25;97531.05;;;10.41;72.88
41306;BME280;27051;50.376;19.152;2023-11-21T08:50:40;97535.96;;;10.37;73.15
41306;BME280;27051;50.376;19.152;2023-11-21T08:53:18;97537.64;;;10.27;72.65
41306;BME280;27051;50.376;19.152;2023-11-21T08:55:48;97544.41;;;10.11;72.52
41306;BME280;27051;50.376;19.152;2023-11-21T08:58:35;97544.73;;;9.98;72.76
41306;BME280;27051;50.376;19.152;2023-11-21T09:01:13;97545.91;;;9.93;73.05
41306;BME280;27051;50.376;19.152;2023-11-21T09:03:40;97545.52;;;9.86;73.15
41306;BME280;27051;50.376;19.152;2023-11-21T09:06:33;97549.38;;;9.84;73.15
41306;BME280;27051;50.376;19.152;2023-11-21T09:08:59;97548.91;;;9.80;73.12
41306;BME280;27051;50.376;19.152;2023-11-21T09:11:49;97546.69;;;9.77;72.78
41306;BME280;27051;50.376;19.152;2023-11-21T09:14:24;97545.52;;;9.70;72.91
41306;BME280;27051;50.376;19.152;2023-11-21T09:17:23;97546.86;;;9.74;72.98
41306;BME280;27051;50.376;19.152;2023-11-21T09:23:21;97548.89;;;9.89;73.23
41306;BME280;27051;50.376;19.152;2023-11-21T09:25:54;97549.30;;;10.04;73.01
41306;BME280;27051;50.376;19.152;2023-11-21T09:28:31;97546.08;;;10.13;73.13
41306;BME280;27051;50.376;19.152;2023-11-21T09:33:36;97542.51;;;10.28;72.76
41306;BME280;27051;50.376;19.152;2023-11-21T09:36:05;97542.60;;;10.39;72.62
41306;BME280;27051;50.376;19.152;2023-11-21T09:38:38;97540.77;;;10.47;72.75
41306;BME280;27051;50.376;19.152;2023-11-21T09:41:11;97539.48;;;10.58;72.45
41306;BME280;27051;50.376;19.152;2023-11-21T09:44:05;97539.60;;;10.63;72.13
41306;BME280;27051;50.376;19.152;2023-11-21T09:46:50;97540.55;;;10.61;71.89
41306;BME280;27051;50.376;19.152;2023-11-21T09:49:22;97543.09;;;10.66;72.16
41306;BME280;27051;50.376;19.152;2023-11-21T09:54:34;97545.42;;;10.82;72.15
41306;BME280;27051;50.376;19.152;2023-11-21T09:57:11;97540.57;;;10.97;71.98
41306;BME280;27051;50.376;19.152;2023-11-21T10:02:50;97538.70;;;11.12;71.77
41306;BME280;27051;50.376;19.152;2023-11-21T10:05:40;97542.58;;;11.14;71.88
41306;BME280;27051;50.376;19.152;2023-11-21T10:08:27;97540.58;;;11.09;71.33
41306;BME280;27051;50.376;19.152;2023-11-21T10:11:08;97538.64;;;11.17;71.69
41306;BME280;27051;50.376;19.152;2023-11-21T10:14:00;97538.06;;;11.23;71.16
41306;BME280;27051;50.376;19.152;2023-11-21T10:16:26;97539.20;;;11.26;71.43
41306;BME280;27051;50.376;19.152;2023-11-21T10:19:17;97537.41;;;11.29;71.28
41306;BME280;27051;50.376;19.152;2023-11-21T10:22:08;97540.44;;;11.31;71.10
41306;BME280;27051;50.376;19.152;2023-11-21T10:24:42;97537.84;;;11.32;71.26
41306;BME280;27051;50.376;19.152;2023-11-21T10:27:21;97537.59;;;11.27;70.69
41306;BME280;27051;50.376;19.152;2023-11-21T10:29:51;97537.98;;;11.19;70.84
41306;BME280;27051;50.376;19.152;2023-11-21T10:32:43;97537.42;;;11.17;70.47
41306;BME280;27051;50.376;19.152;2023-11-21T10:35:24;97539.72;;;11.13;70.49
41306;BME280;27051;50.376;19.152;2023-11-21T10:38:21;97539.42;;;11.01;70.54
41306;BME280;27051;50.376;19.152;2023-11-21T10:41:09;97539.83;;;11.02;70.90
41306;BME280;27051;50.376;19.152;2023-11-21T10:44:18;97540.72;;;11.04;70.60
41306;BME280;27051;50.376;19.152;2023-11-21T10:53:04;97540.97;;;10.94;70.98
41306;BME280;27051;50.376;19.152;2023-11-21T10:55:55;97544.97;;;10.85;70.77
41306;BME280;27051;50.376;19.152;2023-11-21T10:58:50;97546.45;;;10.72;70.57
41306;BME280;27051;50.376;19.152;2023-11-21T11:01:39;97545.81;;;10.59;70.57
41306;BME280;27051;50.376;19.152;2023-11-21T11:04:32;97542.75;;;10.46;70.52
41306;BME280;27051;50.376;19.152;2023-11-21T11:10:21;97543.42;;;10.37;70.75
41306;BME280;27051;50.376;19.152;2023-11-21T11:12:57;97543.80;;;10.37;71.02
41306;BME280;27051;50.376;19.152;2023-11-21T11:15:55;97545.92;;;10.40;71.02
41306;BME280;27051;50.376;19.152;2023-11-21T11:18:38;97546.02;;;10.37;70.79
41306;BME280;27051;50.376;19.152;2023-11-21T11:24:36;97544.48;;;10.44;71.23
41306;BME280;27051;50.376;19.152;2023-11-21T11:27:34;97543.05;;;10.52;71.05
41306;BME280;27051;50.376;19.152;2023-11-21T11:42:56;97551.66;;;10.68;70.79
41306;BME280;27051;50.376;19.152;2023-11-21T11:45:35;97551.86;;;10.66;70.66
41306;BME280;27051;50.376;19.152;2023-11-21T11:48:05;97548.75;;;10.60;70.71
41306;BME280;27051;50.376;19.152;2023-11-21T11:51:21;97551.09;;;10.59;70.74
41306;BME280;27051;50.376;19.152;2023-11-21T11:53:34;97555.01;;;10.66;71.02
41306;BME280;27051;50.376;19.152;2023-11-21T11:56:41;97554.50;;;10.71;70.87
41306;BME280;27051;50.376;19.152;2023-11-21T12:10:53;97562.94;;;10.49;70.58
41306;BME280;27051;50.376;19.152;2023-11-21T12:13:47;97561.08;;;10.52;70.73
41306;BME280;27051;50.376;19.152;2023-11-21T12:16:19;97564.56;;;10.50;70.55
41306;BME280;27051;50.376;19.152;2023-11-21T12:18:50;97564.54;;;10.48;70.61
41306;BME280;27051;50.376;19.152;2023-11-21T12:21:34;97566.14;;;10.45;70.46
41306;BME280;27051;50.376;19.152;2023-11-21T12:24:09;97566.63;;;10.42;70.82
41306;BME280;27051;50.376;19.152;2023-11-21T12:29:53;97562.34;;;10.46;70.92
41306;BME280;27051;50.376;19.152;2023-11-21T12:32:40;97560.96;;;10.50;70.79
41306;BME280;27051;50.376;19.152;2023-11-21T12:35:10;97561.79;;;10.53;70.84
41306;BME280;27051;50.376;19.152;2023-11-21T12:38:04;97563.36;;;10.54;70.72
41306;BME280;27051;50.376;19.152;2023-11-21T12:40:52;97562.77;;;10.52;70.48
41306;BME280;27051;50.376;19.152;2023-11-21T12:43:20;97566.02;;;10.49;70.80
41306;BME280;27051;50.376;19.152;2023-11-21T12:49:15;97566.69;;;10.45;70.85
41306;BME280;27051;50.376;19.152;2023-11-21T12:52:03;97564.83;;;10.47;70.90
41306;BME280;27051;50.376;19.152;2023-11-21T12:54:51;97566.25;;;10.43;70.87
41306;BME280;27051;50.376;19.152;2023-11-21T13:00:27;97573.13;;;10.45;71.03
41306;BME280;27051;50.376;19.152;2023-11-21T13:06:10;97580.38;;;10.46;70.97
41306;BME280;27051;50.376;19.152;2023-11-21T13:08:37;97580.36;;;10.36;70.75
41306;BME280;27051;50.376;19.152;2023-11-21T13:11:27;97582.97;;;10.31;71.02
41306;BME280;27051;50.376;19.152;2023-11-21T13:14:35;97586.47;;;10.28;71.05
41306;BME280;27051;50.376;19.152;2023-11-21T13:17:04;97584.84;;;10.20;70.92
41306;BME280;27051;50.376;19.152;2023-11-21T13:20:12;97592.01;;;10.19;71.00
41306;BME280;27051;50.376;19.152;2023-11-21T13:22:52;97592.16;;;10.19;70.95
41306;BME280;27051;50.376;19.152;2023-11-21T13:25:52;97592.58;;;10.20;70.91
41306;BME280;27051;50.376;19.152;2023-11-21T13:28:48;97594.71;;;10.16;71.13
41306;BME280;27051;50.376;19.152;2023-11-21T13:31:44;97597.36;;;10.14;71.05
41306;BME280;27051;50.376;19.152;2023-11-21T13:34:33;97600.23;;;10.19;71.27
41306;BME280;27051;50.376;19.152;2023-11-21T13:37:03;97599.86;;;10.29;71.30
41306;BME280;27051;50.376;19.152;2023-11-21T13:39:43;97597.42;;;10.33;71.25
41306;BME280;27051;50.376;19.152;2023-11-21T13:42:40;97595.09;;;10.35;70.93
41306;BME280;27051;50.376;19.152;2023-11-21T13:45:26;97601.02;;;10.35;71.09
41306;BME280;27051;50.376;19.152;2023-11-21T13:47:55;97598.67;;;10.40;71.09
41306;BME280;27051;50.376;19.152;2023-11-21T13:50:54;97597.65;;;10.43;71.06
41306;BME280;27051;50.376;19.152;2023-11-21T13:53:40;97600.99;;;10.45;70.98
41306;BME280;27051;50.376;19.152;2023-11-21T13:56:11;97601.33;;;10.46;70.83
41306;BME280;27051;50.376;19.152;2023-11-21T14:01:55;97609.73;;;10.41;71.00
41306;BME280;27051;50.376;19.152;2023-11-21T14:04:32;97612.38;;;10.46;70.97
41306;BME280;27051;50.376;19.152;2023-11-21T14:07:23;97613.54;;;10.43;70.88
41306;BME280;27051;50.376;19.152;2023-11-21T14:09:59;97613.91;;;10.42;70.94
41306;BME280;27051;50.376;19.152;2023-11-21T14:12:49;97611.76;;;10.42;70.97
41306;BME280;27051;50.376;19.152;2023-11-21T14:15:56;97612.73;;;10.48;71.12
41306;BME280;27051;50.376;19.152;2023-11-21T14:19:25;97615.98;;;10.53;70.94
41306;BME280;27051;50.376;19.152;2023-11-21T14:22:13;97619.41;;;10.48;70.89
41306;BME280;27051;50.376;19.152;2023-11-21T14:27:26;97621.17;;;10.44;70.83
41306;BME280;27051;50.376;19.152;2023-11-21T14:30:06;97623.58;;;10.42;71.01
41306;BME280;27051;50.376;19.152;2023-11-21T14:32:55;97626.95;;;10.42;70.91
41306;BME280;27051;50.376;19.152;2023-11-21T14:35:30;97625.76;;;10.43;71.13
41306;BME280;27051;50.376;19.152;2023-11-21T14:38:08;97630.73;;;10.50;71.26
41306;BME280;27051;50.376;19.152;2023-11-21T14:40:55;97631.83;;;10.47;70.96
41306;BME280;27051;50.376;19.152;2023-11-21T14:43:27;97635.48;;;10.46;71.07
41306;BME280;27051;50.376;19.152;2023-11-21T14:46:06;97633.59;;;10.43;70.98
41306;BME280;27051;50.376;19.152;2023-11-21T14:48:33;97640.52;;;10.41;71.09
41306;BME280;27051;50.376;19.152;2023-11-21T14:51:02;97640.73;;;10.44;71.13
41306;BME280;27051;50.376;19.152;2023-11-21T14:53:34;97640.64;;;10.50;71.11
41306;BME280;27051;50.376;19.152;2023-11-21T14:56:01;97642.13;;;10.51;71.03
41306;BME280;27051;50.376;19.152;2023-11-21T14:58:28;97644.85;;;10.52;70.99
41306;BME280;27051;50.376;19.152;2023-11-21T15:01:20;97646.09;;;10.56;70.95
41306;BME280;27051;50.376;19.152;2023-11-21T15:03:49;97646.41;;;10.53;70.81
41306;BME280;27051;50.376;19.152;2023-11-21T15:06:45;97645.67;;;10.52;70.99
41306;BME280;27051;50.376;19.152;2023-11-21T15:09:21;97652.27;;;10.54;70.97
41306;BME280;27051;50.376;19.152;2023-11-21T15:12:09;97651.54;;;10.56;70.90
41306;BME280;27051;50.376;19.152;2023-11-21T15:14:41;97651.14;;;10.52;70.76
41306;BME280;27051;50.376;19.152;2023-11-21T15:17:50;97653.52;;;10.49;70.96
41306;BME280;27051;50.376;19.152;2023-11-21T15:20:35;97652.17;;;10.47;70.82
41306;BME280;27051;50.376;19.152;2023-11-21T15:23:05;97657.74;;;10.43;70.84
41306;BME280;27051;50.376;19.152;2023-11-21T15:25:32;97655.28;;;10.36;70.73
41306;BME280;27051;50.376;19.152;2023-11-21T15:28:02;97658.35;;;10.39;70.99
41306;BME280;27051;50.376;19.152;2023-11-21T15:35:52;97662.45;;;10.57;71.02
41306;BME280;27051;50.376;19.152;2023-11-21T15:38:57;97663.23;;;10.58;70.79
41306;BME280;27051;50.376;19.152;2023-11-21T15:41:33;97664.23;;;10.54;70.70
41306;BME280;27051;50.376;19.152;2023-11-21T15:44:21;97668.33;;;10.52;70.79
41306;BME280;27051;50.376;19.152;2023-11-21T15:52:48;97679.30;;;10.42;70.69
41306;BME280;27051;50.376;19.152;2023-11-21T15:55:15;97680.33;;;10.37;70.71
41306;BME280;27051;50.376;19.152;2023-11-21T15:57:50;97680.78;;;10.36;70.89
41306;BME280;27051;50.376;19.152;2023-11-21T16:00:28;97684.45;;;10.43;70.97
41306;BME280;27051;50.376;19.152;2023-11-21T16:03:18;97691.14;;;10.49;70.97
41306;BME280;27051;50.376;19.152;2023-11-21T16:05:45;97693.85;;;10.53;70.99
41306;BME280;27051;50.376;19.152;2023-11-21T16:08:15;97700.09;;;10.57;70.98
41306;BME280;27051;50.376;19.152;2023-11-21T16:10:45;97704.86;;;10.55;70.78
41306;BME280;27051;50.376;19.152;2023-11-21T16:13:15;97708.33;;;10.52;70.58
41306;BME280;27051;50.376;19.152;2023-11-21T16:15:54;97719.35;;;10.39;70.09
41306;BME280;27051;50.376;19.152;2023-11-21T16:18:25;97723.31;;;10.22;70.16
41306;BME280;27051;50.376;19.152;2023-11-21T16:20:52;97727.23;;;10.08;69.98
41306;BME280;27051;50.376;19.152;2023-11-21T16:26:00;97736.62;;;9.83;69.83
41306;BME280;27051;50.376;19.152;2023-11-21T16:28:29;97743.83;;;9.68;69.66
41306;BME280;27051;50.376;19.152;2023-11-21T16:31:22;97749.27;;;9.57;69.70
41306;BME280;27051;50.376;19.152;2023-11-21T16:34:13;97753.56;;;9.47;69.68
41306;BME280;27051;50.376;19.152;2023-11-21T16:36:45;97759.69;;;9.39;69.44
41306;BME280;27051;50.376;19.152;2023-11-21T16:39:15;97763.76;;;9.28;69.40
41306;BME280;27051;50.376;19.152;2023-11-21T16:42:11;97770.01;;;9.22;69.39
41306;BME280;27051;50.376;19.152;2023-11-21T16:45:00;97772.30;;;9.07;69.36